sensor_id;sensor_type;location;lat;lon;timestamp;P1;durP1;ratioP1;P2;durP2;ratioP2
44480;SDS011;30184;42.018;23.670;2023-03-11T00:00:54;49.28;;;20.33;;
44480;SDS011;30184;42.018;23.670;2023-03-11T00:03:23;28.77;;;15.43;;
44480;SDS011;30184;42.018;23.670;2023-03-11T00:05:58;25.80;;;14.32;;
44480;SDS011;30184;42.018;23.670;2023-03-11T00:08:29;31.02;;;15.23;;
44480;SDS011;30184;42.018;23.670;2023-03-11T00:10:58;33.50;;;17.33;;
44480;SDS011;30184;42.018;23.670;2023-03-11T00:13:28;71.15;;;23.75;;
44480;SDS011;30184;42.018;23.670;2023-03-11T00:15:59;29.00;;;16.67;;
44480;SDS011;30184;42.018;23.670;2023-03-11T00:18:29;31.58;;;16.70;;
44480;SDS011;30184;42.018;23.670;2023-03-11T00:20:59;27.55;;;16.30;;
44480;SDS011;30184;42.018;23.670;2023-03-11T00:23:29;27.17;;;15.25;;
44480;SDS011;30184;42.018;23.670;2023-03-11T00:25:59;28.15;;;15.45;;
44480;SDS011;30184;42.018;23.670;2023-03-11T00:28:29;18.85;;;10.32;;
44480;SDS011;30184;42.018;23.670;2023-03-11T00:31:00;20.38;;;11.55;;
44480;SDS011;30184;42.018;23.670;2023-03-11T00:33:30;20.98;;;11.63;;
44480;SDS011;30184;42.018;23.670;2023-03-11T00:36:01;23.63;;;12.40;;
44480;SDS011;30184;42.018;23.670;2023-03-11T00:38:31;23.95;;;12.65;;
44480;SDS011;30184;42.018;23.670;2023-03-11T00:41:00;37.63;;;17.42;;
44480;SDS011;30184;42.018;23.670;2023-03-11T00:43:30;33.45;;;18.50;;
44480;SDS011;30184;42.018;23.670;2023-03-11T00:45:59;34.15;;;17.77;;
44480;SDS011;30184;42.018;23.670;2023-03-11T00:48:31;32.58;;;18.38;;
44480;SDS011;30184;42.018;23.670;2023-03-11T00:51:02;30.10;;;15.00;;
44480;SDS011;30184;42.018;23.670;2023-03-11T00:53:31;26.48;;;14.45;;
44480;SDS011;30184;42.018;23.670;2023-03-11T00:56:05;34.70;;;17.45;;
44480;SDS011;30184;42.018;23.670;2023-03-11T00:58:35;31.63;;;17.80;;
44480;SDS011;30184;42.018;23.670;2023-03-11T01:01:06;23.90;;;14.18;;
44480;SDS011;30184;42.018;23.670;2023-03-11T01:03:36;12.73;;;8.02;;
44480;SDS011;30184;42.018;23.670;2023-03-11T01:06:07;8.20;;;4.97;;
44480;SDS011;30184;42.018;23.670;2023-03-11T01:08:36;7.15;;;4.40;;
44480;SDS011;30184;42.018;23.670;2023-03-11T01:11:06;4.82;;;2.25;;
44480;SDS011;30184;42.018;23.670;2023-03-11T01:13:36;3.70;;;2.13;;
44480;SDS011;30184;42.018;23.670;2023-03-11T01:16:06;3.47;;;2.20;;
44480;SDS011;30184;42.018;23.670;2023-03-11T01:18:36;3.30;;;1.60;;
44480;SDS011;30184;42.018;23.670;2023-03-11T01:21:06;3.60;;;1.25;;
44480;SDS011;30184;42.018;23.670;2023-03-11T01:23:35;4.63;;;1.65;;
44480;SDS011;30184;42.018;23.670;2023-03-11T01:26:06;2.42;;;1.00;;
44480;SDS011;30184;42.018;23.670;2023-03-11T01:28:36;3.17;;;1.10;;
44480;SDS011;30184;42.018;23.670;2023-03-11T01:31:05;3.28;;;1.00;;
44480;SDS011;30184;42.018;23.670;2023-03-11T01:33:34;3.53;;;0.90;;
44480;SDS011;30184;42.018;23.670;2023-03-11T01:36:05;3.55;;;1.08;;
44480;SDS011;30184;42.018;23.670;2023-03-11T01:38:36;5.10;;;1.05;;
44480;SDS011;30184;42.018;23.670;2023-03-11T01:41:05;5.57;;;1.30;;
44480;SDS011;30184;42.018;23.670;2023-03-11T01:43:39;3.63;;;1.20;;
44480;SDS011;30184;42.018;23.670;2023-03-11T01:46:19;1.10;;;0.60;;
44480;SDS011;30184;42.018;23.670;2023-03-11T01:48:50;2.33;;;1.00;;
44480;SDS011;30184;42.018;23.670;2023-03-11T01:51:24;9.15;;;2.22;;
44480;SDS011;30184;42.018;23.670;2023-03-11T01:53:59;6.53;;;2.22;;
44480;SDS011;30184;42.018;23.670;2023-03-11T01:56:31;11.02;;;3.78;;
44480;SDS011;30184;42.018;23.670;2023-03-11T01:59:01;8.20;;;3.67;;
44480;SDS011;30184;42.018;23.670;2023-03-11T02:01:31;23.60;;;8.07;;
44480;SDS011;30184;42.018;23.670;2023-03-11T02:04:02;13.93;;;4.50;;
44480;SDS011;30184;42.018;23.670;2023-03-11T02:06:33;8.27;;;3.42;;
44480;SDS011;30184;42.018;23.670;2023-03-11T02:09:03;8.57;;;3.45;;
44480;SDS011;30184;42.018;23.670;2023-03-11T02:11:32;13.43;;;3.80;;
44480;SDS011;30184;42.018;23.670;2023-03-11T02:14:03;7.18;;;1.80;;
44480;SDS011;30184;42.018;23.670;2023-03-11T02:16:36;4.70;;;1.80;;
44480;SDS011;30184;42.018;23.670;2023-03-11T02:19:08;3.67;;;1.10;;
44480;SDS011;30184;42.018;23.670;2023-03-11T02:21:47;2.83;;;1.45;;
44480;SDS011;30184;42.018;23.670;2023-03-11T02:24:18;6.15;;;1.30;;
44480;SDS011;30184;42.018;23.670;2023-03-11T02:26:57;4.50;;;1.30;;
44480;SDS011;30184;42.018;23.670;2023-03-11T02:29:29;5.50;;;1.50;;
44480;SDS011;30184;42.018;23.670;2023-03-11T02:32:01;3.22;;;1.30;;
44480;SDS011;30184;42.018;23.670;2023-03-11T02:34:35;4.22;;;1.38;;
44480;SDS011;30184;42.018;23.670;2023-03-11T02:37:07;3.08;;;1.48;;
44480;SDS011;30184;42.018;23.670;2023-03-11T02:39:40;3.40;;;1.33;;
44480;SDS011;30184;42.018;23.670;2023-03-11T02:42:15;3.88;;;1.50;;
44480;SDS011;30184;42.018;23.670;2023-03-11T02:44:48;4.97;;;2.67;;
44480;SDS011;30184;42.018;23.670;2023-03-11T02:47:27;5.45;;;2.60;;
44480;SDS011;30184;42.018;23.670;2023-03-11T02:49:56;4.45;;;2.08;;
44480;SDS011;30184;42.018;23.670;2023-03-11T02:52:26;3.90;;;1.13;;
44480;SDS011;30184;42.018;23.670;2023-03-11T02:54:56;2.65;;;1.40;;
44480;SDS011;30184;42.018;23.670;2023-03-11T02:57:27;3.13;;;1.80;;
44480;SDS011;30184;42.018;23.670;2023-03-11T02:59:56;3.38;;;1.30;;
44480;SDS011;30184;42.018;23.670;2023-03-11T03:02:33;3.88;;;1.40;;
44480;SDS011;30184;42.018;23.670;2023-03-11T03:05:02;4.20;;;1.20;;
44480;SDS011;30184;42.018;23.670;2023-03-11T03:07:33;2.47;;;1.10;;
44480;SDS011;30184;42.018;23.670;2023-03-11T03:10:02;6.43;;;2.30;;
44480;SDS011;30184;42.018;23.670;2023-03-11T03:12:33;8.40;;;3.55;;
44480;SDS011;30184;42.018;23.670;2023-03-11T03:15:02;20.13;;;8.93;;
44480;SDS011;30184;42.018;23.670;2023-03-11T03:17:32;22.02;;;7.47;;
44480;SDS011;30184;42.018;23.670;2023-03-11T03:20:03;12.77;;;6.60;;
44480;SDS011;30184;42.018;23.670;2023-03-11T03:22:41;13.25;;;5.70;;
44480;SDS011;30184;42.018;23.670;2023-03-11T03:25:13;17.67;;;8.40;;
44480;SDS011;30184;42.018;23.670;2023-03-11T03:27:43;14.35;;;7.00;;
44480;SDS011;30184;42.018;23.670;2023-03-11T03:30:13;9.73;;;4.30;;
44480;SDS011;30184;42.018;23.670;2023-03-11T03:32:43;8.82;;;5.38;;
44480;SDS011;30184;42.018;23.670;2023-03-11T03:35:15;10.98;;;4.43;;
44480;SDS011;30184;42.018;23.670;2023-03-11T03:37:56;10.00;;;5.85;;
44480;SDS011;30184;42.018;23.670;2023-03-11T03:40:26;8.98;;;4.97;;
44480;SDS011;30184;42.018;23.670;2023-03-11T03:42:58;10.88;;;6.88;;
44480;SDS011;30184;42.018;23.670;2023-03-11T03:45:29;40.85;;;22.67;;
44480;SDS011;30184;42.018;23.670;2023-03-11T03:47:59;24.75;;;15.20;;
44480;SDS011;30184;42.018;23.670;2023-03-11T03:50:31;36.67;;;27.33;;
44480;SDS011;30184;42.018;23.670;2023-03-11T03:53:01;17.40;;;8.38;;
44480;SDS011;30184;42.018;23.670;2023-03-11T03:55:30;12.20;;;7.50;;
44480;SDS011;30184;42.018;23.670;2023-03-11T03:58:02;14.55;;;8.52;;
44480;SDS011;30184;42.018;23.670;2023-03-11T04:00:33;16.33;;;9.02;;
44480;SDS011;30184;42.018;23.670;2023-03-11T04:03:02;14.68;;;6.70;;
44480;SDS011;30184;42.018;23.670;2023-03-11T04:05:50;11.63;;;4.97;;
44480;SDS011;30184;42.018;23.670;2023-03-11T04:08:20;7.57;;;4.35;;
44480;SDS011;30184;42.018;23.670;2023-03-11T04:10:55;28.65;;;10.52;;
44480;SDS011;30184;42.018;23.670;2023-03-11T04:13:28;25.48;;;11.65;;
44480;SDS011;30184;42.018;23.670;2023-03-11T04:15:58;34.92;;;14.88;;
44480;SDS011;30184;42.018;23.670;2023-03-11T04:18:27;44.33;;;18.15;;
44480;SDS011;30184;42.018;23.670;2023-03-11T04:20:57;33.80;;;16.77;;
44480;SDS011;30184;42.018;23.670;2023-03-11T04:23:27;27.17;;;12.13;;
44480;SDS011;30184;42.018;23.670;2023-03-11T04:25:57;15.30;;;8.18;;
44480;SDS011;30184;42.018;23.670;2023-03-11T04:28:28;10.43;;;6.10;;
44480;SDS011;30184;42.018;23.670;2023-03-11T04:30:57;12.75;;;4.68;;
44480;SDS011;30184;42.018;23.670;2023-03-11T04:33:27;10.85;;;7.30;;
44480;SDS011;30184;42.018;23.670;2023-03-11T04:35:57;16.65;;;8.50;;
44480;SDS011;30184;42.018;23.670;2023-03-11T04:38:27;16.60;;;10.05;;
44480;SDS011;30184;42.018;23.670;2023-03-11T04:40:58;13.07;;;7.57;;
44480;SDS011;30184;42.018;23.670;2023-03-11T04:43:31;11.88;;;5.60;;
44480;SDS011;30184;42.018;23.670;2023-03-11T04:46:00;11.05;;;5.35;;
44480;SDS011;30184;42.018;23.670;2023-03-11T04:48:31;9.10;;;5.70;;
44480;SDS011;30184;42.018;23.670;2023-03-11T04:51:00;16.90;;;8.13;;
44480;SDS011;30184;42.018;23.670;2023-03-11T04:53:30;33.65;;;14.25;;
44480;SDS011;30184;42.018;23.670;2023-03-11T04:55:59;189.95;;;85.30;;
44480;SDS011;30184;42.018;23.670;2023-03-11T04:58:30;45.80;;;24.52;;
44480;SDS011;30184;42.018;23.670;2023-03-11T05:01:00;22.45;;;13.45;;
44480;SDS011;30184;42.018;23.670;2023-03-11T05:03:29;14.65;;;8.25;;
44480;SDS011;30184;42.018;23.670;2023-03-11T05:05:59;16.63;;;9.88;;
44480;SDS011;30184;42.018;23.670;2023-03-11T05:08:29;18.17;;;9.70;;
44480;SDS011;30184;42.018;23.670;2023-03-11T05:10:58;17.58;;;10.15;;
44480;SDS011;30184;42.018;23.670;2023-03-11T05:13:27;18.90;;;11.30;;
44480;SDS011;30184;42.018;23.670;2023-03-11T05:15:58;73.15;;;42.00;;
44480;SDS011;30184;42.018;23.670;2023-03-11T05:18:27;33.88;;;19.60;;
44480;SDS011;30184;42.018;23.670;2023-03-11T05:20:58;41.13;;;21.73;;
44480;SDS011;30184;42.018;23.670;2023-03-11T05:23:30;89.53;;;37.78;;
44480;SDS011;30184;42.018;23.670;2023-03-11T05:26:00;95.50;;;43.08;;
44480;SDS011;30184;42.018;23.670;2023-03-11T05:28:31;349.55;;;150.63;;
44480;SDS011;30184;42.018;23.670;2023-03-11T05:31:06;252.27;;;111.80;;
44480;SDS011;30184;42.018;23.670;2023-03-11T05:33:37;125.47;;;55.67;;
44480;SDS011;30184;42.018;23.670;2023-03-11T05:36:10;152.73;;;64.65;;
44480;SDS011;30184;42.018;23.670;2023-03-11T05:38:42;199.52;;;89.88;;
44480;SDS011;30184;42.018;23.670;2023-03-11T05:41:13;82.88;;;41.80;;
44480;SDS011;30184;42.018;23.670;2023-03-11T05:43:43;131.85;;;67.20;;
44480;SDS011;30184;42.018;23.670;2023-03-11T05:46:14;191.88;;;93.38;;
44480;SDS011;30184;42.018;23.670;2023-03-11T05:48:44;121.88;;;61.00;;
44480;SDS011;30184;42.018;23.670;2023-03-11T05:51:13;55.28;;;32.28;;
44480;SDS011;30184;42.018;23.670;2023-03-11T05:53:45;69.13;;;38.25;;
44480;SDS011;30184;42.018;23.670;2023-03-11T05:56:22;144.18;;;71.50;;
44480;SDS011;30184;42.018;23.670;2023-03-11T05:58:56;138.55;;;64.85;;
44480;SDS011;30184;42.018;23.670;2023-03-11T06:01:30;90.00;;;48.92;;
44480;SDS011;30184;42.018;23.670;2023-03-11T06:03:59;58.33;;;31.48;;
44480;SDS011;30184;42.018;23.670;2023-03-11T06:06:29;56.53;;;29.33;;
44480;SDS011;30184;42.018;23.670;2023-03-11T06:08:59;36.78;;;22.52;;
44480;SDS011;30184;42.018;23.670;2023-03-11T06:11:30;47.90;;;28.23;;
44480;SDS011;30184;42.018;23.670;2023-03-11T06:13:59;75.32;;;42.63;;
44480;SDS011;30184;42.018;23.670;2023-03-11T06:16:30;152.80;;;76.70;;
44480;SDS011;30184;42.018;23.670;2023-03-11T06:19:02;37.03;;;23.23;;
44480;SDS011;30184;42.018;23.670;2023-03-11T06:21:36;47.53;;;29.25;;
44480;SDS011;30184;42.018;23.670;2023-03-11T06:24:06;231.57;;;84.18;;
44480;SDS011;30184;42.018;23.670;2023-03-11T06:26:36;372.25;;;142.70;;
44480;SDS011;30184;42.018;23.670;2023-03-11T06:29:07;96.57;;;54.97;;
44480;SDS011;30184;42.018;23.670;2023-03-11T06:31:43;57.45;;;32.92;;
44480;SDS011;30184;42.018;23.670;2023-03-11T06:34:12;66.97;;;30.67;;
44480;SDS011;30184;42.018;23.670;2023-03-11T06:36:42;188.95;;;72.72;;
44480;SDS011;30184;42.018;23.670;2023-03-11T06:39:12;60.83;;;31.98;;
44480;SDS011;30184;42.018;23.670;2023-03-11T06:41:43;155.73;;;65.43;;
44480;SDS011;30184;42.018;23.670;2023-03-11T06:44:13;159.73;;;74.35;;
